sensor_id;sensor_type;location;lat;lon;timestamp;P1;durP1;ratioP1;P2;durP2;ratioP2
72573;SDS011;60603;52.548;13.420;2023-05-07T00:01:41;15.88;;;9.30;;
72573;SDS011;60603;52.548;13.420;2023-05-07T00:04:06;19.70;;;10.07;;
72573;SDS011;60603;52.548;13.420;2023-05-07T00:06:32;21.48;;;10.20;;
72573;SDS011;60603;52.548;13.420;2023-05-07T00:08:58;19.58;;;9.60;;
72573;SDS011;60603;52.548;13.420;2023-05-07T00:11:25;18.98;;;10.00;;
72573;SDS011;60603;52.548;13.420;2023-05-07T00:13:51;13.80;;;8.77;;
72573;SDS011;60603;52.548;13.420;2023-05-07T00:16:16;14.88;;;9.27;;
72573;SDS011;60603;52.548;13.420;2023-05-07T00:18:42;16.98;;;9.98;;
72573;SDS011;60603;52.548;13.420;2023-05-07T00:21:09;17.45;;;9.50;;
72573;SDS011;60603;52.548;13.420;2023-05-07T00:23:35;14.60;;;9.05;;
72573;SDS011;60603;52.548;13.420;2023-05-07T00:26:00;16.60;;;9.10;;
72573;SDS011;60603;52.548;13.420;2023-05-07T00:28:26;17.10;;;10.25;;
72573;SDS011;60603;52.548;13.420;2023-05-07T00:30:52;16.90;;;9.48;;
72573;SDS011;60603;52.548;13.420;2023-05-07T00:33:18;14.63;;;9.18;;
72573;SDS011;60603;52.548;13.420;2023-05-07T00:35:45;17.25;;;10.18;;
72573;SDS011;60603;52.548;13.420;2023-05-07T00:38:11;16.38;;;9.60;;
72573;SDS011;60603;52.548;13.420;2023-05-07T00:40:36;16.23;;;9.98;;
72573;SDS011;60603;52.548;13.420;2023-05-07T00:43:02;14.55;;;8.98;;
72573;SDS011;60603;52.548;13.420;2023-05-07T00:45:28;15.48;;;10.23;;
72573;SDS011;60603;52.548;13.420;2023-05-07T00:47:58;15.43;;;9.93;;
72573;SDS011;60603;52.548;13.420;2023-05-07T00:50:26;17.80;;;9.65;;
72573;SDS011;60603;52.548;13.420;2023-05-07T00:52:52;16.55;;;8.93;;
72573;SDS011;60603;52.548;13.420;2023-05-07T00:55:18;15.45;;;9.40;;
72573;SDS011;60603;52.548;13.420;2023-05-07T00:57:44;17.65;;;9.68;;
72573;SDS011;60603;52.548;13.420;2023-05-07T01:00:10;13.80;;;9.18;;
72573;SDS011;60603;52.548;13.420;2023-05-07T01:02:38;16.10;;;9.95;;
72573;SDS011;60603;52.548;13.420;2023-05-07T01:05:04;18.40;;;10.18;;
72573;SDS011;60603;52.548;13.420;2023-05-07T01:07:31;14.13;;;9.07;;
72573;SDS011;60603;52.548;13.420;2023-05-07T01:09:58;16.85;;;9.40;;
72573;SDS011;60603;52.548;13.420;2023-05-07T01:12:24;14.43;;;9.05;;
72573;SDS011;60603;52.548;13.420;2023-05-07T01:14:50;18.85;;;9.93;;
72573;SDS011;60603;52.548;13.420;2023-05-07T01:17:16;18.70;;;9.98;;
72573;SDS011;60603;52.548;13.420;2023-05-07T01:19:42;15.85;;;8.73;;
72573;SDS011;60603;52.548;13.420;2023-05-07T01:22:09;14.73;;;9.82;;
72573;SDS011;60603;52.548;13.420;2023-05-07T01:24:37;14.70;;;8.55;;
72573;SDS011;60603;52.548;13.420;2023-05-07T01:27:03;18.10;;;9.88;;
72573;SDS011;60603;52.548;13.420;2023-05-07T01:29:29;15.73;;;9.50;;
72573;SDS011;60603;52.548;13.420;2023-05-07T01:31:56;16.67;;;9.55;;
72573;SDS011;60603;52.548;13.420;2023-05-07T01:34:24;13.40;;;8.40;;
72573;SDS011;60603;52.548;13.420;2023-05-07T01:36:52;13.63;;;8.70;;
72573;SDS011;60603;52.548;13.420;2023-05-07T01:39:26;15.23;;;8.57;;
72573;SDS011;60603;52.548;13.420;2023-05-07T01:41:56;15.68;;;9.23;;
72573;SDS011;60603;52.548;13.420;2023-05-07T01:44:22;16.67;;;9.82;;
72573;SDS011;60603;52.548;13.420;2023-05-07T01:46:48;16.60;;;9.65;;
72573;SDS011;60603;52.548;13.420;2023-05-07T01:49:14;15.30;;;8.98;;
72573;SDS011;60603;52.548;13.420;2023-05-07T01:51:41;15.10;;;8.93;;
72573;SDS011;60603;52.548;13.420;2023-05-07T01:54:06;15.05;;;8.90;;
72573;SDS011;60603;52.548;13.420;2023-05-07T01:56:33;15.07;;;8.07;;
72573;SDS011;60603;52.548;13.420;2023-05-07T01:58:59;13.75;;;8.48;;
72573;SDS011;60603;52.548;13.420;2023-05-07T02:01:25;17.30;;;8.48;;
72573;SDS011;60603;52.548;13.420;2023-05-07T02:03:51;15.20;;;8.52;;
72573;SDS011;60603;52.548;13.420;2023-05-07T02:06:16;15.05;;;8.73;;
72573;SDS011;60603;52.548;13.420;2023-05-07T02:08:42;13.07;;;8.00;;
72573;SDS011;60603;52.548;13.420;2023-05-07T02:11:08;16.73;;;8.88;;
72573;SDS011;60603;52.548;13.420;2023-05-07T02:13:33;14.95;;;8.88;;
72573;SDS011;60603;52.548;13.420;2023-05-07T02:16:02;14.70;;;8.18;;
72573;SDS011;60603;52.548;13.420;2023-05-07T02:18:28;13.13;;;8.00;;
72573;SDS011;60603;52.548;13.420;2023-05-07T02:20:54;13.88;;;8.18;;
72573;SDS011;60603;52.548;13.420;2023-05-07T02:23:19;15.45;;;8.40;;
72573;SDS011;60603;52.548;13.420;2023-05-07T02:25:46;15.65;;;8.57;;
72573;SDS011;60603;52.548;13.420;2023-05-07T02:28:12;17.23;;;9.27;;
72573;SDS011;60603;52.548;13.420;2023-05-07T02:30:38;13.57;;;8.10;;
72573;SDS011;60603;52.548;13.420;2023-05-07T02:33:04;14.07;;;7.97;;
72573;SDS011;60603;52.548;13.420;2023-05-07T02:35:30;17.58;;;10.02;;
72573;SDS011;60603;52.548;13.420;2023-05-07T02:37:56;16.00;;;9.05;;
72573;SDS011;60603;52.548;13.420;2023-05-07T02:40:21;13.75;;;8.43;;
72573;SDS011;60603;52.548;13.420;2023-05-07T02:42:47;13.80;;;8.50;;
72573;SDS011;60603;52.548;13.420;2023-05-07T02:45:13;14.50;;;9.52;;
72573;SDS011;60603;52.548;13.420;2023-05-07T02:47:39;13.63;;;8.07;;
72573;SDS011;60603;52.548;13.420;2023-05-07T02:50:06;14.88;;;8.68;;
72573;SDS011;60603;52.548;13.420;2023-05-07T02:52:32;13.32;;;7.78;;
72573;SDS011;60603;52.548;13.420;2023-05-07T02:54:58;14.32;;;7.97;;
72573;SDS011;60603;52.548;13.420;2023-05-07T02:57:23;13.95;;;8.32;;
72573;SDS011;60603;52.548;13.420;2023-05-07T02:59:49;13.98;;;7.68;;
72573;SDS011;60603;52.548;13.420;2023-05-07T03:02:14;13.57;;;7.82;;
72573;SDS011;60603;52.548;13.420;2023-05-07T03:04:40;13.18;;;7.18;;
72573;SDS011;60603;52.548;13.420;2023-05-07T03:07:06;13.57;;;7.93;;
72573;SDS011;60603;52.548;13.420;2023-05-07T03:09:32;13.95;;;7.55;;
72573;SDS011;60603;52.548;13.420;2023-05-07T03:11:57;12.43;;;7.88;;
72573;SDS011;60603;52.548;13.420;2023-05-07T03:14:23;13.32;;;7.20;;
72573;SDS011;60603;52.548;13.420;2023-05-07T03:16:49;13.50;;;7.53;;
72573;SDS011;60603;52.548;13.420;2023-05-07T03:19:15;11.57;;;6.90;;
72573;SDS011;60603;52.548;13.420;2023-05-07T03:21:41;12.02;;;7.28;;
72573;SDS011;60603;52.548;13.420;2023-05-07T03:24:06;11.95;;;7.05;;
72573;SDS011;60603;52.548;13.420;2023-05-07T03:26:32;11.20;;;6.95;;
72573;SDS011;60603;52.548;13.420;2023-05-07T03:28:58;15.00;;;7.80;;
72573;SDS011;60603;52.548;13.420;2023-05-07T03:31:23;13.48;;;8.00;;
72573;SDS011;60603;52.548;13.420;2023-05-07T03:33:53;13.02;;;7.05;;
72573;SDS011;60603;52.548;13.420;2023-05-07T03:36:20;13.95;;;7.75;;
72573;SDS011;60603;52.548;13.420;2023-05-07T03:38:46;14.93;;;7.57;;
72573;SDS011;60603;52.548;13.420;2023-05-07T03:41:12;14.88;;;7.80;;
72573;SDS011;60603;52.548;13.420;2023-05-07T03:43:38;14.18;;;7.85;;
72573;SDS011;60603;52.548;13.420;2023-05-07T03:46:03;17.10;;;7.88;;
72573;SDS011;60603;52.548;13.420;2023-05-07T03:48:29;11.60;;;7.25;;
72573;SDS011;60603;52.548;13.420;2023-05-07T03:50:55;12.15;;;7.85;;
72573;SDS011;60603;52.548;13.420;2023-05-07T03:53:22;15.68;;;8.55;;
72573;SDS011;60603;52.548;13.420;2023-05-07T03:55:48;14.10;;;7.43;;
72573;SDS011;60603;52.548;13.420;2023-05-07T03:58:13;11.32;;;6.90;;
72573;SDS011;60603;52.548;13.420;2023-05-07T04:00:39;13.55;;;7.57;;
72573;SDS011;60603;52.548;13.420;2023-05-07T04:03:06;12.15;;;7.22;;
72573;SDS011;60603;52.548;13.420;2023-05-07T04:05:31;12.23;;;6.90;;
72573;SDS011;60603;52.548;13.420;2023-05-07T04:07:57;14.00;;;6.47;;
72573;SDS011;60603;52.548;13.420;2023-05-07T04:10:24;11.15;;;7.03;;
72573;SDS011;60603;52.548;13.420;2023-05-07T04:12:50;12.13;;;7.13;;
72573;SDS011;60603;52.548;13.420;2023-05-07T04:15:15;13.07;;;7.18;;
72573;SDS011;60603;52.548;13.420;2023-05-07T04:17:41;11.48;;;7.70;;
72573;SDS011;60603;52.548;13.420;2023-05-07T04:20:08;12.35;;;7.47;;
72573;SDS011;60603;52.548;13.420;2023-05-07T04:22:36;13.45;;;7.10;;
72573;SDS011;60603;52.548;13.420;2023-05-07T04:25:02;14.18;;;7.28;;
72573;SDS011;60603;52.548;13.420;2023-05-07T04:27:29;10.88;;;6.35;;
72573;SDS011;60603;52.548;13.420;2023-05-07T04:29:54;12.60;;;6.70;;
72573;SDS011;60603;52.548;13.420;2023-05-07T04:32:24;11.77;;;6.63;;
72573;SDS011;60603;52.548;13.420;2023-05-07T04:34:50;10.02;;;6.20;;
72573;SDS011;60603;52.548;13.420;2023-05-07T04:37:16;12.63;;;6.55;;
72573;SDS011;60603;52.548;13.420;2023-05-07T04:39:42;13.90;;;6.95;;
72573;SDS011;60603;52.548;13.420;2023-05-07T04:42:08;11.63;;;6.47;;
72573;SDS011;60603;52.548;13.420;2023-05-07T04:44:37;11.60;;;6.32;;
72573;SDS011;60603;52.548;13.420;2023-05-07T04:47:02;9.20;;;5.35;;
72573;SDS011;60603;52.548;13.420;2023-05-07T04:49:28;10.30;;;5.88;;
72573;SDS011;60603;52.548;13.420;2023-05-07T04:51:54;13.75;;;6.68;;
72573;SDS011;60603;52.548;13.420;2023-05-07T04:54:19;11.48;;;6.82;;
72573;SDS011;60603;52.548;13.420;2023-05-07T04:56:45;9.25;;;5.30;;
72573;SDS011;60603;52.548;13.420;2023-05-07T04:59:11;9.60;;;5.90;;
72573;SDS011;60603;52.548;13.420;2023-05-07T05:01:36;8.43;;;5.70;;
72573;SDS011;60603;52.548;13.420;2023-05-07T05:04:02;9.68;;;5.50;;
72573;SDS011;60603;52.548;13.420;2023-05-07T05:06:28;9.63;;;5.50;;
72573;SDS011;60603;52.548;13.420;2023-05-07T05:08:54;8.95;;;5.22;;
72573;SDS011;60603;52.548;13.420;2023-05-07T05:11:20;10.02;;;5.53;;
72573;SDS011;60603;52.548;13.420;2023-05-07T05:13:45;10.75;;;5.70;;
72573;SDS011;60603;52.548;13.420;2023-05-07T05:16:14;9.82;;;5.22;;
72573;SDS011;60603;52.548;13.420;2023-05-07T05:18:40;9.93;;;4.90;;
72573;SDS011;60603;52.548;13.420;2023-05-07T05:21:05;8.48;;;5.07;;
72573;SDS011;60603;52.548;13.420;2023-05-07T05:23:31;9.18;;;5.28;;
72573;SDS011;60603;52.548;13.420;2023-05-07T05:25:57;9.88;;;5.95;;
72573;SDS011;60603;52.548;13.420;2023-05-07T05:28:23;9.50;;;5.35;;
72573;SDS011;60603;52.548;13.420;2023-05-07T05:30:49;9.50;;;5.05;;
72573;SDS011;60603;52.548;13.420;2023-05-07T05:33:15;10.70;;;5.53;;
72573;SDS011;60603;52.548;13.420;2023-05-07T05:35:41;11.05;;;5.78;;
72573;SDS011;60603;52.548;13.420;2023-05-07T05:38:07;11.55;;;5.82;;
72573;SDS011;60603;52.548;13.420;2023-05-07T05:40:36;9.02;;;5.10;;
72573;SDS011;60603;52.548;13.420;2023-05-07T05:43:01;11.68;;;5.85;;
72573;SDS011;60603;52.548;13.420;2023-05-07T05:45:27;9.32;;;5.70;;
72573;SDS011;60603;52.548;13.420;2023-05-07T05:47:53;10.52;;;5.95;;
72573;SDS011;60603;52.548;13.420;2023-05-07T05:50:18;7.78;;;4.78;;
72573;SDS011;60603;52.548;13.420;2023-05-07T05:52:44;8.93;;;5.57;;
72573;SDS011;60603;52.548;13.420;2023-05-07T05:55:10;10.23;;;5.22;;
72573;SDS011;60603;52.548;13.420;2023-05-07T05:57:36;10.40;;;5.80;;
72573;SDS011;60603;52.548;13.420;2023-05-07T06:00:05;9.88;;;5.32;;
72573;SDS011;60603;52.548;13.420;2023-05-07T06:02:32;9.32;;;5.18;;
72573;SDS011;60603;52.548;13.420;2023-05-07T06:04:58;7.82;;;4.88;;
72573;SDS011;60603;52.548;13.420;2023-05-07T06:07:23;8.55;;;5.20;;
72573;SDS011;60603;52.548;13.420;2023-05-07T06:09:52;8.38;;;5.15;;
72573;SDS011;60603;52.548;13.420;2023-05-07T06:12:25;9.70;;;5.32;;
72573;SDS011;60603;52.548;13.420;2023-05-07T06:14:51;11.88;;;5.80;;
72573;SDS011;60603;52.548;13.420;2023-05-07T06:17:17;10.88;;;5.68;;
72573;SDS011;60603;52.548;13.420;2023-05-07T06:19:43;8.25;;;4.95;;
72573;SDS011;60603;52.548;13.420;2023-05-07T06:22:08;7.18;;;4.65;;
72573;SDS011;60603;52.548;13.420;2023-05-07T06:24:35;9.10;;;5.32;;
72573;SDS011;60603;52.548;13.420;2023-05-07T06:27:00;9.65;;;4.82;;
72573;SDS011;60603;52.548;13.420;2023-05-07T06:29:26;8.88;;;4.82;;
72573;SDS011;60603;52.548;13.420;2023-05-07T06:31:52;9.80;;;4.85;;
72573;SDS011;60603;52.548;13.420;2023-05-07T06:34:18;9.02;;;5.30;;
72573;SDS011;60603;52.548;13.420;2023-05-07T06:36:44;9.13;;;5.32;;
72573;SDS011;60603;52.548;13.420;2023-05-07T06:39:10;10.60;;;5.28;;
72573;SDS011;60603;52.548;13.420;2023-05-07T06:41:35;8.35;;;5.22;;
72573;SDS011;60603;52.548;13.420;2023-05-07T06:44:01;12.07;;;4.93;;
72573;SDS011;60603;52.548;13.420;2023-05-07T06:46:28;7.85;;;5.05;;
72573;SDS011;60603;52.548;13.420;2023-05-07T06:48:54;8.15;;;4.75;;
72573;SDS011;60603;52.548;13.420;2023-05-07T06:51:19;9.68;;;4.85;;
72573;SDS011;60603;52.548;13.420;2023-05-07T06:53:45;9.38;;;5.20;;
72573;SDS011;60603;52.548;13.420;2023-05-07T06:56:10;7.72;;;4.40;;
72573;SDS011;60603;52.548;13.420;2023-05-07T06:58:37;8.10;;;4.38;;
72573;SDS011;60603;52.548;13.420;2023-05-07T07:01:02;8.80;;;4.78;;
72573;SDS011;60603;52.548;13.420;2023-05-07T07:03:28;8.35;;;4.40;;
72573;SDS011;60603;52.548;13.420;2023-05-07T07:05:54;9.02;;;4.05;;
72573;SDS011;60603;52.548;13.420;2023-05-07T07:08:21;7.68;;;4.07;;
72573;SDS011;60603;52.548;13.420;2023-05-07T07:10:47;7.90;;;4.22;;
72573;SDS011;60603;52.548;13.420;2023-05-07T07:13:13;5.78;;;3.47;;
72573;SDS011;60603;52.548;13.420;2023-05-07T07:15:38;6.55;;;3.50;;
72573;SDS011;60603;52.548;13.420;2023-05-07T07:18:05;6.50;;;3.40;;
72573;SDS011;60603;52.548;13.420;2023-05-07T07:20:31;5.63;;;3.53;;
72573;SDS011;60603;52.548;13.420;2023-05-07T07:22:57;6.63;;;3.30;;
72573;SDS011;60603;52.548;13.420;2023-05-07T07:25:23;6.68;;;3.28;;
72573;SDS011;60603;52.548;13.420;2023-05-07T07:27:49;5.05;;;3.28;;
72573;SDS011;60603;52.548;13.420;2023-05-07T07:30:15;6.13;;;3.60;;
72573;SDS011;60603;52.548;13.420;2023-05-07T07:32:41;6.30;;;3.35;;
72573;SDS011;60603;52.548;13.420;2023-05-07T07:35:06;6.85;;;3.60;;
72573;SDS011;60603;52.548;13.420;2023-05-07T07:37:33;7.32;;;3.55;;
72573;SDS011;60603;52.548;13.420;2023-05-07T07:39:58;6.28;;;3.60;;
72573;SDS011;60603;52.548;13.420;2023-05-07T07:42:25;6.05;;;3.60;;
72573;SDS011;60603;52.548;13.420;2023-05-07T07:44:51;5.28;;;2.90;;
72573;SDS011;60603;52.548;13.420;2023-05-07T07:47:17;5.72;;;3.08;;
72573;SDS011;60603;52.548;13.420;2023-05-07T07:49:43;6.00;;;2.80;;
72573;SDS011;60603;52.548;13.420;2023-05-07T07:52:09;5.88;;;2.90;;
72573;SDS011;60603;52.548;13.420;2023-05-07T07:54:34;4.70;;;2.70;;
72573;SDS011;60603;52.548;13.420;2023-05-07T07:57:00;5.22;;;2.90;;
72573;SDS011;60603;52.548;13.420;2023-05-07T07:59:26;6.32;;;3.20;;
72573;SDS011;60603;52.548;13.420;2023-05-07T08:01:52;6.45;;;3.20;;
72573;SDS011;60603;52.548;13.420;2023-05-07T08:04:22;8.50;;;2.92;;
72573;SDS011;60603;52.548;13.420;2023-05-07T08:06:48;5.50;;;2.53;;
72573;SDS011;60603;52.548;13.420;2023-05-07T08:09:13;4.50;;;2.45;;
72573;SDS011;60603;52.548;13.420;2023-05-07T08:11:39;4.80;;;2.90;;
72573;SDS011;60603;52.548;13.420;2023-05-07T08:14:05;5.75;;;2.47;;
72573;SDS011;60603;52.548;13.420;2023-05-07T08:16:31;4.45;;;2.42;;
72573;SDS011;60603;52.548;13.420;2023-05-07T08:18:56;4.65;;;2.10;;
72573;SDS011;60603;52.548;13.420;2023-05-07T08:21:22;5.90;;;2.40;;
72573;SDS011;60603;52.548;13.420;2023-05-07T08:23:48;4.88;;;2.67;;
72573;SDS011;60603;52.548;13.420;2023-05-07T08:26:14;5.18;;;2.30;;
72573;SDS011;60603;52.548;13.420;2023-05-07T08:28:40;4.82;;;2.50;;
72573;SDS011;60603;52.548;13.420;2023-05-07T08:31:07;4.45;;;2.15;;
72573;SDS011;60603;52.548;13.420;2023-05-07T08:33:32;5.25;;;2.10;;
72573;SDS011;60603;52.548;13.420;2023-05-07T08:35:58;5.90;;;2.58;;
72573;SDS011;60603;52.548;13.420;2023-05-07T08:38:23;4.85;;;2.17;;
72573;SDS011;60603;52.548;13.420;2023-05-07T08:40:49;5.15;;;2.50;;
72573;SDS011;60603;52.548;13.420;2023-05-07T08:43:15;5.80;;;2.50;;
72573;SDS011;60603;52.548;13.420;2023-05-07T08:45:42;5.20;;;2.08;;
72573;SDS011;60603;52.548;13.420;2023-05-07T08:48:17;4.35;;;2.03;;
72573;SDS011;60603;52.548;13.420;2023-05-07T08:50:43;6.35;;;2.45;;
72573;SDS011;60603;52.548;13.420;2023-05-07T08:53:08;5.13;;;2.90;;
72573;SDS011;60603;52.548;13.420;2023-05-07T08:55:34;4.97;;;2.47;;
72573;SDS011;60603;52.548;13.420;2023-05-07T08:58:00;4.95;;;2.30;;
72573;SDS011;60603;52.548;13.420;2023-05-07T09:00:26;5.97;;;2.58;;
72573;SDS011;60603;52.548;13.420;2023-05-07T09:02:53;3.90;;;2.20;;
72573;SDS011;60603;52.548;13.420;2023-05-07T09:05:19;6.63;;;2.15;;
72573;SDS011;60603;52.548;13.420;2023-05-07T09:07:45;5.55;;;2.50;;
72573;SDS011;60603;52.548;13.420;2023-05-07T09:10:11;5.05;;;2.33;;
72573;SDS011;60603;52.548;13.420;2023-05-07T09:12:37;5.13;;;2.58;;
72573;SDS011;60603;52.548;13.420;2023-05-07T09:15:04;4.80;;;2.40;;
72573;SDS011;60603;52.548;13.420;2023-05-07T09:17:30;6.32;;;2.38;;
72573;SDS011;60603;52.548;13.420;2023-05-07T09:19:56;4.53;;;2.40;;
72573;SDS011;60603;52.548;13.420;2023-05-07T09:22:30;4.82;;;2.20;;
72573;SDS011;60603;52.548;13.420;2023-05-07T09:24:57;3.95;;;2.22;;
72573;SDS011;60603;52.548;13.420;2023-05-07T09:27:22;4.18;;;2.33;;
72573;SDS011;60603;52.548;13.420;2023-05-07T09:29:48;5.38;;;2.35;;
72573;SDS011;60603;52.548;13.420;2023-05-07T09:32:15;4.78;;;2.42;;
72573;SDS011;60603;52.548;13.420;2023-05-07T09:34:41;4.65;;;2.45;;
72573;SDS011;60603;52.548;13.420;2023-05-07T09:37:07;4.63;;;2.25;;
72573;SDS011;60603;52.548;13.420;2023-05-07T09:39:46;4.72;;;2.40;;
72573;SDS011;60603;52.548;13.420;2023-05-07T09:42:13;5.60;;;2.58;;
72573;SDS011;60603;52.548;13.420;2023-05-07T09:44:45;4.40;;;2.28;;
72573;SDS011;60603;52.548;13.420;2023-05-07T09:47:12;5.18;;;2.63;;
72573;SDS011;60603;52.548;13.420;2023-05-07T09:49:46;7.00;;;2.88;;
72573;SDS011;60603;52.548;13.420;2023-05-07T09:52:13;5.03;;;2.00;;
72573;SDS011;60603;52.548;13.420;2023-05-07T09:54:39;3.53;;;1.67;;
72573;SDS011;60603;52.548;13.420;2023-05-07T09:57:09;4.35;;;1.90;;
72573;SDS011;60603;52.548;13.420;2023-05-07T09:59:37;3.72;;;1.85;;
72573;SDS011;60603;52.548;13.420;2023-05-07T10:02:03;4.20;;;2.05;;
72573;SDS011;60603;52.548;13.420;2023-05-07T10:04:32;4.97;;;1.98;;
72573;SDS011;60603;52.548;13.420;2023-05-07T10:06:58;3.85;;;1.80;;
72573;SDS011;60603;52.548;13.420;2023-05-07T10:09:25;3.90;;;1.80;;
72573;SDS011;60603;52.548;13.420;2023-05-07T10:11:51;4.03;;;1.80;;
72573;SDS011;60603;52.548;13.420;2023-05-07T10:14:17;3.05;;;1.58;;
72573;SDS011;60603;52.548;13.420;2023-05-07T10:16:45;3.58;;;1.70;;
72573;SDS011;60603;52.548;13.420;2023-05-07T10:19:12;5.35;;;2.10;;
72573;SDS011;60603;52.548;13.420;2023-05-07T10:21:38;3.85;;;1.83;;
72573;SDS011;60603;52.548;13.420;2023-05-07T10:24:09;3.40;;;1.55;;
72573;SDS011;60603;52.548;13.420;2023-05-07T10:26:42;4.47;;;1.95;;
72573;SDS011;60603;52.548;13.420;2023-05-07T10:29:18;3.80;;;1.83;;
72573;SDS011;60603;52.548;13.420;2023-05-07T10:32:10;5.07;;;1.65;;
72573;SDS011;60603;52.548;13.420;2023-05-07T10:34:45;3.17;;;1.55;;
72573;SDS011;60603;52.548;13.420;2023-05-07T10:37:12;4.78;;;1.90;;
72573;SDS011;60603;52.548;13.420;2023-05-07T10:39:38;4.22;;;1.60;;
72573;SDS011;60603;52.548;13.420;2023-05-07T10:42:11;3.13;;;1.40;;
72573;SDS011;60603;52.548;13.420;2023-05-07T10:44:37;3.42;;;1.60;;
72573;SDS011;60603;52.548;13.420;2023-05-07T10:47:07;4.38;;;1.98;;
72573;SDS011;60603;52.548;13.420;2023-05-07T10:52:15;5.85;;;1.92;;
72573;SDS011;60603;52.548;13.420;2023-05-07T10:54:42;4.15;;;1.58;;
72573;SDS011;60603;52.548;13.420;2023-05-07T10:57:54;4.30;;;1.80;;
72573;SDS011;60603;52.548;13.420;2023-05-07T10:59:58;3.80;;;1.85;;
72573;SDS011;60603;52.548;13.420;2023-05-07T11:02:42;3.42;;;1.55;;
72573;SDS011;60603;52.548;13.420;2023-05-07T11:07:54;3.53;;;1.50;;
72573;SDS011;60603;52.548;13.420;2023-05-07T11:10:21;3.00;;;1.42;;
72573;SDS011;60603;52.548;13.420;2023-05-07T11:12:47;4.30;;;1.63;;
72573;SDS011;60603;52.548;13.420;2023-05-07T11:15:15;3.95;;;1.73;;
72573;SDS011;60603;52.548;13.420;2023-05-07T11:17:58;3.75;;;1.73;;
72573;SDS011;60603;52.548;13.420;2023-05-07T11:20:43;3.20;;;1.50;;
72573;SDS011;60603;52.548;13.420;2023-05-07T11:26:03;3.22;;;1.60;;
72573;SDS011;60603;52.548;13.420;2023-05-07T11:28:30;3.00;;;1.50;;
72573;SDS011;60603;52.548;13.420;2023-05-07T11:30:57;4.43;;;1.52;;
72573;SDS011;60603;52.548;13.420;2023-05-07T11:33:23;4.57;;;1.38;;
72573;SDS011;60603;52.548;13.420;2023-05-07T11:35:51;2.75;;;1.40;;
72573;SDS011;60603;52.548;13.420;2023-05-07T11:38:18;4.18;;;1.75;;
72573;SDS011;60603;52.548;13.420;2023-05-07T11:40:51;3.47;;;1.50;;
72573;SDS011;60603;52.548;13.420;2023-05-07T11:43:18;3.45;;;1.52;;
72573;SDS011;60603;52.548;13.420;2023-05-07T11:45:44;3.35;;;1.42;;
72573;SDS011;60603;52.548;13.420;2023-05-07T11:48:14;3.22;;;1.63;;
72573;SDS011;60603;52.548;13.420;2023-05-07T11:53:43;3.22;;;1.50;;
72573;SDS011;60603;52.548;13.420;2023-05-07T11:56:09;5.70;;;1.50;;
72573;SDS011;60603;52.548;13.420;2023-05-07T11:58:36;4.00;;;1.60;;
72573;SDS011;60603;52.548;13.420;2023-05-07T12:01:02;3.88;;;1.50;;
72573;SDS011;60603;52.548;13.420;2023-05-07T12:03:28;4.03;;;1.80;;
72573;SDS011;60603;52.548;13.420;2023-05-07T12:05:53;2.88;;;1.67;;
72573;SDS011;60603;52.548;13.420;2023-05-07T12:08:20;3.03;;;1.38;;
72573;SDS011;60603;52.548;13.420;2023-05-07T12:10:48;3.47;;;1.70;;
72573;SDS011;60603;52.548;13.420;2023-05-07T12:13:15;4.43;;;1.77;;
72573;SDS011;60603;52.548;13.420;2023-05-07T12:15:51;3.30;;;1.42;;
72573;SDS011;60603;52.548;13.420;2023-05-07T12:18:28;2.63;;;1.25;;
72573;SDS011;60603;52.548;13.420;2023-05-07T12:20:54;3.47;;;1.48;;
72573;SDS011;60603;52.548;13.420;2023-05-07T12:23:19;4.38;;;1.60;;
72573;SDS011;60603;52.548;13.420;2023-05-07T12:25:45;3.35;;;1.40;;
72573;SDS011;60603;52.548;13.420;2023-05-07T12:28:18;2.70;;;1.40;;
72573;SDS011;60603;52.548;13.420;2023-05-07T12:33:11;3.78;;;1.50;;
72573;SDS011;60603;52.548;13.420;2023-05-07T12:35:39;3.70;;;1.30;;
72573;SDS011;60603;52.548;13.420;2023-05-07T12:38:08;3.63;;;1.20;;
72573;SDS011;60603;52.548;13.420;2023-05-07T12:40:36;3.35;;;1.48;;
72573;SDS011;60603;52.548;13.420;2023-05-07T12:43:05;3.17;;;1.38;;
72573;SDS011;60603;52.548;13.420;2023-05-07T12:45:30;3.85;;;1.33;;
72573;SDS011;60603;52.548;13.420;2023-05-07T12:48:00;4.20;;;1.50;;
72573;SDS011;60603;52.548;13.420;2023-05-07T12:50:30;3.88;;;1.33;;
72573;SDS011;60603;52.548;13.420;2023-05-07T12:52:57;3.58;;;1.30;;
72573;SDS011;60603;52.548;13.420;2023-05-07T12:55:22;3.63;;;1.38;;
72573;SDS011;60603;52.548;13.420;2023-05-07T12:57:48;3.33;;;1.40;;
72573;SDS011;60603;52.548;13.420;2023-05-07T13:00:16;2.38;;;1.20;;
72573;SDS011;60603;52.548;13.420;2023-05-07T13:02:41;4.00;;;1.70;;
72573;SDS011;60603;52.548;13.420;2023-05-07T13:05:09;3.38;;;1.50;;
72573;SDS011;60603;52.548;13.420;2023-05-07T13:07:35;4.20;;;1.50;;
72573;SDS011;60603;52.548;13.420;2023-05-07T13:10:02;3.63;;;1.60;;
72573;SDS011;60603;52.548;13.420;2023-05-07T13:12:28;2.70;;;1.33;;
72573;SDS011;60603;52.548;13.420;2023-05-07T13:14:54;2.60;;;1.17;;
72573;SDS011;60603;52.548;13.420;2023-05-07T13:17:20;4.22;;;1.65;;
72573;SDS011;60603;52.548;13.420;2023-05-07T13:19:46;4.07;;;1.55;;
72573;SDS011;60603;52.548;13.420;2023-05-07T13:22:11;4.13;;;1.40;;
72573;SDS011;60603;52.548;13.420;2023-05-07T13:24:37;4.72;;;1.50;;
72573;SDS011;60603;52.548;13.420;2023-05-07T13:27:03;2.92;;;1.30;;
72573;SDS011;60603;52.548;13.420;2023-05-07T13:29:29;3.78;;;1.40;;
72573;SDS011;60603;52.548;13.420;2023-05-07T13:31:58;2.50;;;1.10;;
72573;SDS011;60603;52.548;13.420;2023-05-07T13:34:25;3.53;;;1.38;;
72573;SDS011;60603;52.548;13.420;2023-05-07T13:36:50;4.00;;;1.48;;
72573;SDS011;60603;52.548;13.420;2023-05-07T13:39:16;2.95;;;1.25;;
72573;SDS011;60603;52.548;13.420;2023-05-07T13:41:42;3.25;;;1.25;;
72573;SDS011;60603;52.548;13.420;2023-05-07T13:44:08;2.78;;;1.27;;
72573;SDS011;60603;52.548;13.420;2023-05-07T13:46:33;3.70;;;1.38;;
72573;SDS011;60603;52.548;13.420;2023-05-07T13:48:59;3.20;;;1.20;;
72573;SDS011;60603;52.548;13.420;2023-05-07T13:51:25;2.45;;;1.33;;
72573;SDS011;60603;52.548;13.420;2023-05-07T13:53:51;4.18;;;1.48;;
72573;SDS011;60603;52.548;13.420;2023-05-07T13:56:17;3.08;;;1.30;;
72573;SDS011;60603;52.548;13.420;2023-05-07T13:58:43;8.85;;;2.00;;
72573;SDS011;60603;52.548;13.420;2023-05-07T14:01:09;3.28;;;1.33;;
72573;SDS011;60603;52.548;13.420;2023-05-07T14:03:34;3.13;;;1.42;;
72573;SDS011;60603;52.548;13.420;2023-05-07T14:06:03;6.45;;;1.33;;
72573;SDS011;60603;52.548;13.420;2023-05-07T14:08:29;3.88;;;1.50;;
72573;SDS011;60603;52.548;13.420;2023-05-07T14:10:54;5.50;;;1.52;;
72573;SDS011;60603;52.548;13.420;2023-05-07T14:13:20;5.28;;;1.45;;
72573;SDS011;60603;52.548;13.420;2023-05-07T14:15:46;3.85;;;1.65;;
72573;SDS011;60603;52.548;13.420;2023-05-07T14:18:14;4.32;;;1.30;;
72573;SDS011;60603;52.548;13.420;2023-05-07T14:20:39;3.45;;;1.33;;
72573;SDS011;60603;52.548;13.420;2023-05-07T14:23:06;3.50;;;1.30;;
72573;SDS011;60603;52.548;13.420;2023-05-07T14:25:31;4.78;;;1.42;;
72573;SDS011;60603;52.548;13.420;2023-05-07T14:27:57;2.63;;;1.27;;
72573;SDS011;60603;52.548;13.420;2023-05-07T14:30:23;4.13;;;1.52;;
72573;SDS011;60603;52.548;13.420;2023-05-07T14:32:50;5.68;;;1.63;;
72573;SDS011;60603;52.548;13.420;2023-05-07T14:35:16;3.78;;;1.80;;
72573;SDS011;60603;52.548;13.420;2023-05-07T14:37:42;4.45;;;1.40;;
72573;SDS011;60603;52.548;13.420;2023-05-07T14:40:08;3.03;;;1.48;;